Time;durP1;ratioP1;P1;durP2;ratioP2;P2;SDS_P1;SDS_P2;PMS_P1;PMS_P2;Temp;Humidity;BMP_temperature;BMP_pressure;BME280_temperature;BME280_humidity;BME280_pressure;Samples;Min_cycle;Max_cycle;Signal;HPM_P1;HPM_P2
2023/07/26 00:02:21;;;;;;;5.70;2.70;;;;;;;;;;5032853;28;20414;-70
2023/07/26 00:04:47;;;;;;;2.97;2.53;;;;;;;;;;5034803;28;20049;-73
2023/07/26 00:07:14;;;;;;;2.97;2.67;;;;;;;;;;5032792;28;20049;-71
2023/07/26 00:09:41;;;;;;;4.35;2.80;;;;;;;;;;5031917;28;20047;-73
2023/07/26 00:12:08;;;;;;;3.05;2.65;;;;;;;;;;5032468;28;20088;-70
2023/07/26 00:14:35;;;;;;;3.88;2.58;;;;;;;;;;5031965;28;20053;-70
2023/07/26 00:17:02;;;;;;;3.97;3.15;;;;;;;;;;5032439;28;20475;-72
2023/07/26 00:19:30;;;;;;;2.63;2.42;;;;;;;;;;5031905;28;20068;-71
2023/07/26 00:21:56;;;;;;;2.80;2.60;;;;;;;;;;5032320;28;20046;-70
2023/07/26 00:24:23;;;;;;;3.90;2.65;;;;;;;;;;5031999;28;20042;-70
2023/07/26 00:26:50;;;;;;;5.88;2.90;;;;;;;;;;5031976;28;20045;-70
2023/07/26 00:29:16;;;;;;;4.93;2.60;;;;;;;;;;5032286;28;20052;-72
2023/07/26 00:31:43;;;;;;;3.13;2.80;;;;;;;;;;5032028;28;20060;-70
2023/07/26 00:34:09;;;;;;;3.72;2.60;;;;;;;;;;5032006;28;20396;-70
2023/07/26 00:36:37;;;;;;;3.20;2.70;;;;;;;;;;5032101;28;20060;-72
2023/07/26 00:39:04;;;;;;;7.47;2.70;;;;;;;;;;5031788;28;20046;-70
2023/07/26 00:41:30;;;;;;;3.28;2.85;;;;;;;;;;5031614;28;20414;-70
2023/07/26 00:43:57;;;;;;;3.13;2.80;;;;;;;;;;5032545;28;20408;-70
2023/07/26 00:46:24;;;;;;;4.18;2.95;;;;;;;;;;5031788;28;20434;-70
2023/07/26 00:48:51;;;;;;;3.70;3.00;;;;;;;;;;5032161;28;20471;-71
2023/07/26 00:51:18;;;;;;;4.50;2.85;;;;;;;;;;5031155;28;20052;-70
2023/07/26 00:53:46;;;;;;;3.47;3.03;;;;;;;;;;5031684;28;20059;-73
2023/07/26 00:56:13;;;;;;;7.00;2.92;;;;;;;;;;5031361;28;20371;-71
2023/07/26 00:58:40;;;;;;;3.13;2.72;;;;;;;;;;5031760;28;20051;-71
2023/07/26 01:01:07;;;;;;;4.25;2.70;;;;;;;;;;5030918;28;20057;-71
2023/07/26 01:03:33;;;;;;;3.20;2.70;;;;;;;;;;5031761;28;20049;-71
2023/07/26 01:06:10;;;;;;;3.20;2.65;;;;;;;;;;5031113;28;20159;-71
2023/07/26 01:08:46;;;;;;;3.40;2.78;;;;;;;;;;5031118;28;20136;-72
2023/07/26 01:11:21;;;;;;;3.92;2.75;;;;;;;;;;5030874;28;20491;-71
2023/07/26 01:13:54;;;;;;;3.10;2.75;;;;;;;;;;5031767;28;20056;-71
2023/07/26 01:16:21;;;;;;;3.97;2.83;;;;;;;;;;5031148;28;20388;-73
2023/07/26 01:18:48;;;;;;;3.28;2.83;;;;;;;;;;5030847;28;20042;-71
2023/07/26 01:21:14;;;;;;;4.22;2.58;;;;;;;;;;5030501;28;20052;-74
2023/07/26 01:23:42;;;;;;;3.20;2.90;;;;;;;;;;5031359;28;20069;-73
2023/07/26 01:26:09;;;;;;;5.30;2.60;;;;;;;;;;5031243;28;20522;-71
2023/07/26 01:28:35;;;;;;;2.80;2.60;;;;;;;;;;5030972;28;20085;-72
2023/07/26 01:31:05;;;;;;;3.17;2.80;;;;;;;;;;5031262;28;20049;-72
2023/07/26 01:33:35;;;;;;;4.30;2.95;;;;;;;;;;5030533;28;20227;-72
2023/07/26 01:36:02;;;;;;;3.47;3.13;;;;;;;;;;5031122;28;20394;-71
2023/07/26 01:38:30;;;;;;;3.15;2.85;;;;;;;;;;5030805;28;20045;-73
2023/07/26 01:40:58;;;;;;;3.25;2.95;;;;;;;;;;5030715;28;20047;-73
2023/07/26 01:43:25;;;;;;;4.15;3.00;;;;;;;;;;5030566;28;20045;-74
2023/07/26 01:45:52;;;;;;;3.92;3.40;;;;;;;;;;5030781;28;20046;-73
2023/07/26 01:48:18;;;;;;;4.03;3.33;;;;;;;;;;5031033;28;20376;-74
2023/07/26 01:50:45;;;;;;;4.18;3.22;;;;;;;;;;5028943;28;20491;-74
2023/07/26 01:53:11;;;;;;;5.95;3.47;;;;;;;;;;5029001;28;20049;-73
2023/07/26 01:55:38;;;;;;;6.10;3.38;;;;;;;;;;5030544;28;20065;-75
2023/07/26 01:58:06;;;;;;;3.72;3.42;;;;;;;;;;5030050;28;20380;-73
2023/07/26 02:00:32;;;;;;;5.10;3.65;;;;;;;;;;5029853;28;20045;-71
2023/07/26 02:02:59;;;;;;;4.13;3.83;;;;;;;;;;5030857;28;20068;-74
2023/07/26 02:05:26;;;;;;;4.55;3.55;;;;;;;;;;5029333;28;20056;-71
2023/07/26 02:07:52;;;;;;;4.68;3.67;;;;;;;;;;5030361;28;20041;-71
2023/07/26 02:10:19;;;;;;;5.95;3.92;;;;;;;;;;5029780;28;20056;-74
2023/07/26 02:12:45;;;;;;;6.22;4.03;;;;;;;;;;5029941;28;20056;-74
2023/07/26 02:15:13;;;;;;;4.32;3.90;;;;;;;;;;5029744;28;20487;-74
2023/07/26 02:17:40;;;;;;;6.43;4.20;;;;;;;;;;5030431;28;20042;-73
2023/07/26 02:20:08;;;;;;;4.63;3.75;;;;;;;;;;5029400;28;20049;-72
2023/07/26 02:22:35;;;;;;;4.65;4.00;;;;;;;;;;5030329;28;20045;-73
2023/07/26 02:25:01;;;;;;;4.47;4.00;;;;;;;;;;5029937;28;20080;-72
2023/07/26 02:27:28;;;;;;;4.57;3.65;;;;;;;;;;5029686;28;20045;-71
2023/07/26 02:29:56;;;;;;;4.60;3.20;;;;;;;;;;5029787;28;20049;-73
2023/07/26 02:32:24;;;;;;;4.00;3.00;;;;;;;;;;5029521;28;20057;-72
2023/07/26 02:34:50;;;;;;;3.75;3.30;;;;;;;;;;5030004;28;20042;-72
2023/07/26 02:37:17;;;;;;;5.57;3.30;;;;;;;;;;5029974;28;20054;-72
2023/07/26 02:39:43;;;;;;;3.22;2.92;;;;;;;;;;5029625;28;20049;-70
2023/07/26 02:42:10;;;;;;;3.60;3.30;;;;;;;;;;5029533;28;20046;-71
2023/07/26 02:44:37;;;;;;;4.25;3.08;;;;;;;;;;5030136;28;20056;-73
2023/07/26 02:47:03;;;;;;;3.88;3.17;;;;;;;;;;5029748;28;20415;-72
2023/07/26 02:49:32;;;;;;;3.50;3.20;;;;;;;;;;5029963;28;20068;-73
2023/07/26 02:51:59;;;;;;;5.07;3.42;;;;;;;;;;5029736;28;20092;-72
2023/07/26 02:54:25;;;;;;;6.18;3.33;;;;;;;;;;5030099;28;20050;-72
2023/07/26 02:56:52;;;;;;;3.50;3.20;;;;;;;;;;5029624;28;20410;-70
2023/07/26 02:59:19;;;;;;;3.88;3.20;;;;;;;;;;5029243;28;20053;-72
2023/07/26 03:01:45;;;;;;;3.60;3.08;;;;;;;;;;5029524;28;20041;-72
2023/07/26 03:04:12;;;;;;;3.60;3.10;;;;;;;;;;5029528;28;20057;-72
2023/07/26 03:06:40;;;;;;;3.40;3.10;;;;;;;;;;5029456;28;20068;-70
2023/07/26 03:09:07;;;;;;;3.47;3.15;;;;;;;;;;5029217;28;20064;-72
2023/07/26 03:11:34;;;;;;;3.58;3.28;;;;;;;;;;5029451;28;20419;-72
2023/07/26 03:14:00;;;;;;;4.63;2.92;;;;;;;;;;5029419;28;20450;-72
2023/07/26 03:16:27;;;;;;;4.38;3.13;;;;;;;;;;5030732;28;20477;-72
2023/07/26 03:18:54;;;;;;;3.60;3.28;;;;;;;;;;5033268;28;20045;-70
2023/07/26 03:21:20;;;;;;;3.50;3.13;;;;;;;;;;5033147;28;20049;-72
2023/07/26 03:23:48;;;;;;;3.30;3.00;;;;;;;;;;5033266;28;20047;-71
2023/07/26 03:26:15;;;;;;;3.00;2.80;;;;;;;;;;5033096;28;20047;-71
2023/07/26 03:28:41;;;;;;;3.05;2.83;;;;;;;;;;5033336;28;20055;-71
2023/07/26 03:31:08;;;;;;;3.92;3.33;;;;;;;;;;5032438;28;20060;-71
2023/07/26 03:33:34;;;;;;;3.53;3.00;;;;;;;;;;5033155;28;20132;-71
2023/07/26 03:36:01;;;;;;;4.30;3.08;;;;;;;;;;5032607;28;20053;-71
2023/07/26 03:38:28;;;;;;;3.45;3.03;;;;;;;;;;5032867;28;20057;-71
2023/07/26 03:40:57;;;;;;;3.85;2.92;;;;;;;;;;5032453;28;20049;-71
2023/07/26 03:43:23;;;;;;;5.00;2.95;;;;;;;;;;5033496;28;20398;-71
2023/07/26 03:45:50;;;;;;;4.47;2.90;;;;;;;;;;5032195;28;20041;-72
2023/07/26 03:48:16;;;;;;;4.88;3.10;;;;;;;;;;5032908;28;20059;-71
2023/07/26 03:50:43;;;;;;;3.30;2.97;;;;;;;;;;5032650;28;20517;-70
2023/07/26 03:53:09;;;;;;;3.28;2.88;;;;;;;;;;5032366;28;20049;-71
2023/07/26 03:55:36;;;;;;;4.25;3.50;;;;;;;;;;5033245;28;20612;-70
2023/07/26 03:58:04;;;;;;;4.10;3.30;;;;;;;;;;5031809;28;20045;-71
2023/07/26 04:00:30;;;;;;;5.07;3.65;;;;;;;;;;5032753;28;20056;-71
2023/07/26 04:02:57;;;;;;;7.20;3.78;;;;;;;;;;5031956;28;20046;-71
2023/07/26 04:05:24;;;;;;;5.03;3.22;;;;;;;;;;5032797;28;20045;-71
2023/07/26 04:07:50;;;;;;;4.38;3.47;;;;;;;;;;5032290;28;20041;-71
2023/07/26 04:10:17;;;;;;;4.07;3.67;;;;;;;;;;5032316;28;20057;-72
2023/07/26 04:12:43;;;;;;;3.75;3.30;;;;;;;;;;5031787;28;20046;-71
2023/07/26 04:15:12;;;;;;;4.68;3.70;;;;;;;;;;5032637;28;20045;-72
2023/07/26 04:17:38;;;;;;;5.25;3.67;;;;;;;;;;5031923;28;20049;-71
2023/07/26 04:20:06;;;;;;;4.40;3.67;;;;;;;;;;5031882;28;20045;-71
2023/07/26 04:22:32;;;;;;;4.47;3.72;;;;;;;;;;5032930;28;20414;-71
2023/07/26 04:24:59;;;;;;;4.40;3.65;;;;;;;;;;5032066;28;20045;-72
2023/07/26 04:27:26;;;;;;;4.55;3.65;;;;;;;;;;5032187;28;20203;-71
2023/07/26 04:29:53;;;;;;;4.00;3.70;;;;;;;;;;5031915;28;20501;-71
2023/07/26 04:32:21;;;;;;;4.47;3.70;;;;;;;;;;5032365;28;20045;-72
2023/07/26 04:34:47;;;;;;;4.22;3.83;;;;;;;;;;5032250;28;20052;-72
2023/07/26 04:37:14;;;;;;;4.32;3.65;;;;;;;;;;5032260;28;20514;-72
2023/07/26 04:39:41;;;;;;;5.70;3.70;;;;;;;;;;5031355;28;20128;-72
2023/07/26 04:42:07;;;;;;;5.20;3.35;;;;;;;;;;5029943;28;20483;-71
2023/07/26 04:44:34;;;;;;;5.15;3.85;;;;;;;;;;5031689;28;20056;-72
2023/07/26 04:47:00;;;;;;;4.53;3.75;;;;;;;;;;5031568;28;20046;-72
2023/07/26 04:49:28;;;;;;;3.95;3.60;;;;;;;;;;5031180;28;20399;-72
2023/07/26 04:51:55;;;;;;;4.10;3.55;;;;;;;;;;5032242;28;20045;-72
2023/07/26 04:54:21;;;;;;;7.43;3.63;;;;;;;;;;5032120;28;20483;-72
2023/07/26 04:56:48;;;;;;;4.03;3.53;;;;;;;;;;5031379;28;20055;-72
2023/07/26 04:59:15;;;;;;;5.47;3.60;;;;;;;;;;5031836;28;20045;-71
2023/07/26 05:01:42;;;;;;;4.05;3.22;;;;;;;;;;5030703;28;20064;-71
2023/07/26 05:04:10;;;;;;;4.18;3.65;;;;;;;;;;5031935;28;20140;-72
2023/07/26 05:06:38;;;;;;;6.90;4.00;;;;;;;;;;5031211;28;20053;-71
2023/07/26 05:09:05;;;;;;;6.43;3.65;;;;;;;;;;5032159;28;20045;-71
2023/07/26 05:11:31;;;;;;;5.38;3.58;;;;;;;;;;5030878;28;20435;-71
2023/07/26 05:13:58;;;;;;;5.28;3.80;;;;;;;;;;5031506;28;20042;-71
2023/07/26 05:16:24;;;;;;;3.40;3.00;;;;;;;;;;5030590;28;20410;-71
2023/07/26 05:18:51;;;;;;;5.45;3.58;;;;;;;;;;5031479;28;20057;-71
2023/07/26 05:21:18;;;;;;;4.15;3.75;;;;;;;;;;5030444;28;20045;-71
2023/07/26 05:23:46;;;;;;;4.70;3.35;;;;;;;;;;5031726;28;20051;-71
2023/07/26 05:26:12;;;;;;;4.53;3.42;;;;;;;;;;5031833;28;20050;-72
2023/07/26 05:28:39;;;;;;;5.15;3.35;;;;;;;;;;5032156;28;20119;-72
2023/07/26 05:31:06;;;;;;;8.15;3.42;;;;;;;;;;5031724;28;20089;-72
2023/07/26 05:33:32;;;;;;;4.30;3.17;;;;;;;;;;5031358;28;20089;-72
2023/07/26 05:35:59;;;;;;;4.10;3.70;;;;;;;;;;5031185;28;20046;-71
2023/07/26 05:38:25;;;;;;;5.25;3.58;;;;;;;;;;5030349;28;20052;-71
2023/07/26 05:40:53;;;;;;;5.20;3.35;;;;;;;;;;5030051;28;20045;-72
2023/07/26 05:43:20;;;;;;;6.22;3.28;;;;;;;;;;5030275;28;20510;-72
2023/07/26 05:45:46;;;;;;;4.00;3.10;;;;;;;;;;5031090;28;20391;-71
2023/07/26 05:48:14;;;;;;;5.57;3.50;;;;;;;;;;5030561;28;20414;-72
2023/07/26 05:50:40;;;;;;;4.75;3.10;;;;;;;;;;5030799;28;20061;-72
2023/07/26 05:53:07;;;;;;;3.47;3.00;;;;;;;;;;5030610;28;20053;-72
2023/07/26 05:55:33;;;;;;;4.70;3.10;;;;;;;;;;5030869;28;20410;-72
2023/07/26 05:58:01;;;;;;;3.95;3.17;;;;;;;;;;5029395;28;20511;-72
2023/07/26 06:00:28;;;;;;;3.80;2.97;;;;;;;;;;5029432;28;20053;-71
2023/07/26 06:02:55;;;;;;;3.30;2.75;;;;;;;;;;5029329;28;20132;-74
2023/07/26 06:05:21;;;;;;;7.18;3.40;;;;;;;;;;5026592;28;20051;-73
2023/07/26 06:07:49;;;;;;;4.93;2.95;;;;;;;;;;5029534;28;20060;-75
2023/07/26 06:10:16;;;;;;;6.03;2.78;;;;;;;;;;5025150;28;20530;-76
2023/07/26 06:12:42;;;;;;;3.50;2.70;;;;;;;;;;5029205;28;20085;-74
2023/07/26 06:15:11;;;;;;;3.53;2.78;;;;;;;;;;5030224;28;20555;-73
2023/07/26 06:17:38;;;;;;;3.65;3.03;;;;;;;;;;5026629;28;20048;-74
2023/07/26 06:20:06;;;;;;;4.35;2.90;;;;;;;;;;5026021;28;20041;-74
2023/07/26 06:22:32;;;;;;;7.50;2.92;;;;;;;;;;5029484;28;20059;-73
2023/07/26 06:25:00;;;;;;;3.47;2.53;;;;;;;;;;5022185;28;20500;-74
2023/07/26 06:27:29;;;;;;;4.40;2.90;;;;;;;;;;5019167;28;20050;-74
2023/07/26 06:29:56;;;;;;;4.47;2.50;;;;;;;;;;5024082;28;20044;-76
2023/07/26 06:32:24;;;;;;;4.15;2.40;;;;;;;;;;5023070;28;20045;-74
2023/07/26 06:34:50;;;;;;;3.45;2.15;;;;;;;;;;5029038;28;20575;-75
2023/07/26 06:37:17;;;;;;;2.75;2.30;;;;;;;;;;5028213;28;20488;-74
2023/07/26 06:39:44;;;;;;;2.75;2.20;;;;;;;;;;5022225;28;20051;-74
2023/07/26 06:42:10;;;;;;;2.88;2.15;;;;;;;;;;5022983;28;20067;-74
2023/07/26 06:44:38;;;;;;;3.70;2.33;;;;;;;;;;5027509;28;20041;-74
2023/07/26 06:47:06;;;;;;;3.00;2.17;;;;;;;;;;5016750;28;20128;-75
2023/07/26 06:49:34;;;;;;;3.17;2.35;;;;;;;;;;5022747;28;20052;-74
2023/07/26 06:52:00;;;;;;;3.35;2.60;;;;;;;;;;5032510;28;20065;-74
2023/07/26 06:54:27;;;;;;;3.15;2.30;;;;;;;;;;5030664;28;20045;-74
2023/07/26 06:56:53;;;;;;;3.15;2.50;;;;;;;;;;5032937;28;20124;-75
2023/07/26 06:59:20;;;;;;;3.08;2.45;;;;;;;;;;5030899;28;20045;-74
2023/07/26 07:01:46;;;;;;;4.20;2.63;;;;;;;;;;5031961;28;20392;-73
2023/07/26 07:04:13;;;;;;;3.75;2.50;;;;;;;;;;5030869;28;20503;-75
2023/07/26 07:06:41;;;;;;;3.03;2.42;;;;;;;;;;5030999;28;20575;-75
2023/07/26 07:09:08;;;;;;;4.03;2.80;;;;;;;;;;5033141;28;20059;-75
2023/07/26 07:11:35;;;;;;;3.58;2.25;;;;;;;;;;5032532;28;20050;-75
2023/07/26 07:14:01;;;;;;;5.85;2.70;;;;;;;;;;5028936;28;20045;-74
2023/07/26 07:16:28;;;;;;;6.72;2.55;;;;;;;;;;5027986;28;20321;-77
2023/07/26 07:18:55;;;;;;;3.38;2.38;;;;;;;;;;5027045;28;20803;-75
2023/07/26 07:21:22;;;;;;;4.55;2.42;;;;;;;;;;5030557;28;20072;-77
2023/07/26 07:23:50;;;;;;;3.95;2.58;;;;;;;;;;5031152;28;20116;-75
2023/07/26 07:26:17;;;;;;;4.18;2.20;;;;;;;;;;5031051;28;20108;-74
2023/07/26 07:28:44;;;;;;;3.25;2.65;;;;;;;;;;5029829;28;20095;-73
2023/07/26 07:31:11;;;;;;;4.47;2.70;;;;;;;;;;5027997;28;20140;-73
2023/07/26 07:33:38;;;;;;;3.53;2.42;;;;;;;;;;5029493;28;20041;-73
2023/07/26 07:36:06;;;;;;;2.78;2.28;;;;;;;;;;5030999;28;20392;-73
2023/07/26 07:38:33;;;;;;;4.10;2.47;;;;;;;;;;5032375;28;20045;-73
2023/07/26 07:41:01;;;;;;;4.18;2.47;;;;;;;;;;5031709;28;20046;-72
2023/07/26 07:43:28;;;;;;;4.65;2.90;;;;;;;;;;5029345;28;20042;-73
2023/07/26 07:45:54;;;;;;;5.82;2.60;;;;;;;;;;5031580;28;20056;-73
2023/07/26 07:48:21;;;;;;;2.63;2.38;;;;;;;;;;5030985;28;20052;-73
2023/07/26 07:50:53;;;;;;;3.95;2.80;;;;;;;;;;5029042;28;20184;-73
2023/07/26 07:53:20;;;;;;;5.38;2.92;;;;;;;;;;5031236;28;20133;-73
2023/07/26 07:55:51;;;;;;;3.42;2.47;;;;;;;;;;5029655;28;20047;-74
2023/07/26 07:58:20;;;;;;;5.55;2.90;;;;;;;;;;5031373;28;20045;-73
2023/07/26 08:00:47;;;;;;;5.25;2.40;;;;;;;;;;5019771;28;20359;-72
2023/07/26 08:03:13;;;;;;;4.53;2.50;;;;;;;;;;5024834;28;20076;-73
2023/07/26 08:05:40;;;;;;;4.45;2.42;;;;;;;;;;5028298;28;20052;-73
2023/07/26 08:08:07;;;;;;;2.97;2.20;;;;;;;;;;5031473;28;20049;-73
2023/07/26 08:10:33;;;;;;;2.47;2.15;;;;;;;;;;5028283;28;20503;-72
2023/07/26 08:13:00;;;;;;;4.45;2.08;;;;;;;;;;5028170;28;20067;-73
2023/07/26 08:15:32;;;;;;;3.17;2.15;;;;;;;;;;5031101;28;20056;-73
2023/07/26 08:17:59;;;;;;;5.38;2.47;;;;;;;;;;5029241;28;20406;-73
2023/07/26 08:20:33;;;;;;;4.13;2.30;;;;;;;;;;5028808;28;20528;-73
2023/07/26 08:23:00;;;;;;;3.15;2.33;;;;;;;;;;5030525;28;20042;-73
2023/07/26 08:25:26;;;;;;;4.50;2.00;;;;;;;;;;5030031;28;20476;-73
2023/07/26 08:27:53;;;;;;;3.80;2.25;;;;;;;;;;5031725;28;20403;-73
2023/07/26 08:30:20;;;;;;;5.63;2.42;;;;;;;;;;5029104;28;20308;-73
2023/07/26 08:32:48;;;;;;;4.25;2.63;;;;;;;;;;5023981;28;20052;-73
2023/07/26 08:35:14;;;;;;;3.40;2.33;;;;;;;;;;5030590;28;20067;-73
2023/07/26 08:37:41;;;;;;;5.20;2.42;;;;;;;;;;5028137;28;20056;-74
2023/07/26 08:40:09;;;;;;;3.25;2.40;;;;;;;;;;5026981;28;20459;-72
2023/07/26 08:42:35;;;;;;;2.17;1.98;;;;;;;;;;5029378;28;20053;-74
2023/07/26 08:45:03;;;;;;;4.50;2.65;;;;;;;;;;5031105;28;20129;-72
2023/07/26 08:47:31;;;;;;;3.45;2.83;;;;;;;;;;5031019;28;20513;-72
2023/07/26 08:49:59;;;;;;;6.95;2.55;;;;;;;;;;5027687;28;20041;-72
2023/07/26 08:52:27;;;;;;;5.43;2.60;;;;;;;;;;5028807;28;20042;-71
2023/07/26 08:54:53;;;;;;;4.10;2.58;;;;;;;;;;5030019;28;20581;-71
2023/07/26 08:57:21;;;;;;;4.15;2.25;;;;;;;;;;5030293;28;20276;-73
2023/07/26 08:59:47;;;;;;;2.83;2.10;;;;;;;;;;5029993;28;20049;-72
2023/07/26 09:02:17;;;;;;;3.33;2.30;;;;;;;;;;5018777;28;20382;-72
2023/07/26 09:04:45;;;;;;;3.72;2.15;;;;;;;;;;5029664;28;20111;-72
2023/07/26 09:07:14;;;;;;;3.78;2.22;;;;;;;;;;5026636;28;20041;-72
2023/07/26 09:09:40;;;;;;;5.57;2.45;;;;;;;;;;5024893;28;20051;-72
2023/07/26 09:12:08;;;;;;;4.35;2.83;;;;;;;;;;5027720;28;20049;-72
2023/07/26 09:14:35;;;;;;;4.45;2.30;;;;;;;;;;5025401;28;20053;-72
2023/07/26 09:17:03;;;;;;;3.83;2.25;;;;;;;;;;5028727;28;20041;-72
2023/07/26 09:19:31;;;;;;;5.05;2.20;;;;;;;;;;5027316;28;20049;-72
2023/07/26 09:21:59;;;;;;;2.95;1.92;;;;;;;;;;5022785;28;20048;-73
2023/07/26 09:24:39;;;;;;;3.47;2.30;;;;;;;;;;5028825;28;20509;-72
2023/07/26 09:27:07;;;;;;;3.33;2.30;;;;;;;;;;5029504;28;20484;-74
2023/07/26 09:29:34;;;;;;;3.78;2.20;;;;;;;;;;5029908;28;20045;-72
2023/07/26 09:32:01;;;;;;;2.78;2.08;;;;;;;;;;5022515;28;20660;-72
2023/07/26 09:34:29;;;;;;;3.13;2.13;;;;;;;;;;5028516;28;20546;-72
2023/07/26 09:36:57;;;;;;;3.83;2.20;;;;;;;;;;5022934;28;20091;-72
2023/07/26 09:39:25;;;;;;;4.25;2.22;;;;;;;;;;5029037;28;20202;-72
2023/07/26 09:42:03;;;;;;;3.30;2.22;;;;;;;;;;5029464;28;20049;-71
2023/07/26 09:44:30;;;;;;;2.22;1.95;;;;;;;;;;5028882;28;20056;-71
2023/07/26 09:46:58;;;;;;;2.55;2.00;;;;;;;;;;5027959;28;20044;-72
2023/07/26 09:49:26;;;;;;;2.70;2.20;;;;;;;;;;5032150;28;20076;-72
2023/07/26 09:51:57;;;;;;;5.20;2.30;;;;;;;;;;5028606;28;20053;-71
2023/07/26 09:54:26;;;;;;;5.47;2.10;;;;;;;;;;5028125;28;20038;-71
2023/07/26 09:56:55;;;;;;;5.25;2.45;;;;;;;;;;5028211;28;21428;-72
2023/07/26 09:59:25;;;;;;;3.85;2.05;;;;;;;;;;5028644;28;20111;-71
2023/07/26 10:01:53;;;;;;;4.60;2.45;;;;;;;;;;5022663;28;20537;-72
2023/07/26 10:04:26;;;;;;;3.30;1.95;;;;;;;;;;5026554;28;20483;-72
2023/07/26 10:06:56;;;;;;;3.30;2.17;;;;;;;;;;5025619;28;20410;-71
2023/07/26 10:09:25;;;;;;;4.75;2.08;;;;;;;;;;5028026;28;20045;-73
2023/07/26 10:11:52;;;;;;;3.63;2.05;;;;;;;;;;5020884;28;20057;-72
2023/07/26 10:14:22;;;;;;;3.47;2.08;;;;;;;;;;5029218;28;20052;-75
2023/07/26 10:16:51;;;;;;;3.03;1.73;;;;;;;;;;5029604;28;20071;-71
2023/07/26 10:19:19;;;;;;;2.53;1.98;;;;;;;;;;5028890;28;20406;-72
2023/07/26 10:21:48;;;;;;;1.95;1.55;;;;;;;;;;5028939;28;20452;-72
2023/07/26 10:24:15;;;;;;;2.53;1.90;;;;;;;;;;5029623;28;20410;-72
2023/07/26 10:26:46;;;;;;;3.40;1.77;;;;;;;;;;5028655;28;20049;-72
2023/07/26 10:29:13;;;;;;;4.22;1.88;;;;;;;;;;5029502;28;20136;-73
2023/07/26 10:31:41;;;;;;;2.28;1.60;;;;;;;;;;5030063;28;20255;-71
2023/07/26 10:34:09;;;;;;;3.13;1.90;;;;;;;;;;5024082;28;20048;-71
2023/07/26 10:36:39;;;;;;;2.22;1.60;;;;;;;;;;5024653;28;20107;-71
2023/07/26 10:39:07;;;;;;;2.45;1.80;;;;;;;;;;5029233;28;20107;-71
2023/07/26 10:41:35;;;;;;;3.10;1.60;;;;;;;;;;5029083;28;20042;-71
2023/07/26 10:44:04;;;;;;;2.70;1.73;;;;;;;;;;5029361;28;20056;-72
2023/07/26 10:46:45;;;;;;;4.30;2.10;;;;;;;;;;5029430;28;20049;-73
2023/07/26 10:49:24;;;;;;;6.25;2.60;;;;;;;;;;5030252;28;20056;-74
2023/07/26 10:51:56;;;;;;;3.55;2.25;;;;;;;;;;5029070;28;20053;-73
2023/07/26 10:54:34;;;;;;;5.15;2.10;;;;;;;;;;5029456;28;20056;-72
2023/07/26 10:57:17;;;;;;;3.25;2.55;;;;;;;;;;5029614;28;20050;-75
2023/07/26 11:00:00;;;;;;;2.88;2.10;;;;;;;;;;5029331;28;20128;-72
2023/07/26 11:02:43;;;;;;;4.20;2.20;;;;;;;;;;5028189;28;20103;-73
2023/07/26 11:05:16;;;;;;;6.88;2.15;;;;;;;;;;5029115;28;20045;-74
2023/07/26 11:08:00;;;;;;;2.20;1.70;;;;;;;;;;5029479;28;20046;-73
2023/07/26 11:10:29;;;;;;;4.00;1.60;;;;;;;;;;5028583;28;20046;-75
2023/07/26 11:13:20;;;;;;;3.70;1.90;;;;;;;;;;5030026;28;20402;-73
2023/07/26 11:15:48;;;;;;;3.72;1.90;;;;;;;;;;5018832;28;20045;-75
2023/07/26 11:18:16;;;;;;;2.58;1.95;;;;;;;;;;5029567;28;20041;-73
2023/07/26 11:20:47;;;;;;;3.30;1.70;;;;;;;;;;5028477;28;20050;-74
2023/07/26 11:23:18;;;;;;;3.17;1.60;;;;;;;;;;5029493;28;20060;-74
2023/07/26 11:25:45;;;;;;;2.63;1.60;;;;;;;;;;5029510;28;20402;-73
2023/07/26 11:28:12;;;;;;;1.75;1.60;;;;;;;;;;5029722;28;20049;-75
2023/07/26 11:30:40;;;;;;;3.28;1.70;;;;;;;;;;5029043;28;20479;-72
2023/07/26 11:33:06;;;;;;;2.17;1.63;;;;;;;;;;5029928;28;20049;-73
2023/07/26 11:35:39;;;;;;;3.65;2.03;;;;;;;;;;5029991;28;20133;-72
2023/07/26 11:38:08;;;;;;;1.90;1.45;;;;;;;;;;5031548;28;20053;-75
2023/07/26 11:40:39;;;;;;;3.97;1.80;;;;;;;;;;5033099;28;20384;-72
2023/07/26 11:43:06;;;;;;;2.55;1.60;;;;;;;;;;5032773;28;20049;-73
2023/07/26 11:45:33;;;;;;;2.80;1.70;;;;;;;;;;5032961;28;20111;-72
2023/07/26 11:48:00;;;;;;;2.25;1.80;;;;;;;;;;5032245;28;20507;-73
2023/07/26 11:50:27;;;;;;;2.22;1.90;;;;;;;;;;5032599;28;20049;-73
2023/07/26 11:53:04;;;;;;;2.72;1.65;;;;;;;;;;5032642;28;20112;-75
2023/07/26 11:55:32;;;;;;;2.95;1.40;;;;;;;;;;5032919;28;20171;-72
2023/07/26 11:58:03;;;;;;;1.65;1.48;;;;;;;;;;5032484;28;20050;-72
2023/07/26 12:00:31;;;;;;;2.22;1.70;;;;;;;;;;5032884;28;20073;-74
2023/07/26 12:02:58;;;;;;;1.67;1.33;;;;;;;;;;5032394;28;20045;-73
2023/07/26 12:05:25;;;;;;;2.42;1.63;;;;;;;;;;5032928;28;20042;-74
2023/07/26 12:07:53;;;;;;;2.35;1.70;;;;;;;;;;5032216;28;20049;-72
2023/07/26 12:10:28;;;;;;;2.45;1.42;;;;;;;;;;5032165;28;20518;-72
2023/07/26 12:12:57;;;;;;;1.77;1.50;;;;;;;;;;5032676;28;20049;-74
2023/07/26 12:15:24;;;;;;;2.80;1.73;;;;;;;;;;5032504;28;20625;-73
2023/07/26 12:17:55;;;;;;;3.47;1.40;;;;;;;;;;5032287;28;20491;-75
2023/07/26 12:20:22;;;;;;;2.70;1.50;;;;;;;;;;5032136;28;20050;-74
2023/07/26 12:22:53;;;;;;;3.00;1.33;;;;;;;;;;5032679;28;20041;-72
2023/07/26 12:25:20;;;;;;;1.80;1.40;;;;;;;;;;5032334;28;20049;-72
2023/07/26 12:27:48;;;;;;;2.60;1.23;;;;;;;;;;5032416;28;20049;-72
2023/07/26 12:30:17;;;;;;;1.40;1.30;;;;;;;;;;5032110;28;20048;-71
2023/07/26 12:32:44;;;;;;;4.00;1.42;;;;;;;;;;5032650;28;20105;-71
2023/07/26 12:35:22;;;;;;;1.92;1.35;;;;;;;;;;5032312;28;20049;-74
2023/07/26 12:37:50;;;;;;;2.13;1.50;;;;;;;;;;5032502;28;20056;-71
2023/07/26 12:40:18;;;;;;;2.28;1.40;;;;;;;;;;5031572;28;20511;-72
2023/07/26 12:42:45;;;;;;;2.38;1.77;;;;;;;;;;5032486;28;20057;-72
2023/07/26 12:45:13;;;;;;;2.45;1.50;;;;;;;;;;5032484;28;20136;-71
2023/07/26 12:47:41;;;;;;;4.18;1.63;;;;;;;;;;5032527;28;20073;-72
2023/07/26 12:50:09;;;;;;;2.83;1.50;;;;;;;;;;5031397;28;20458;-71
2023/07/26 12:52:37;;;;;;;1.98;1.42;;;;;;;;;;5032040;28;20045;-75
2023/07/26 12:55:06;;;;;;;2.25;1.35;;;;;;;;;;5032094;28;20045;-73
2023/07/26 12:57:32;;;;;;;1.65;1.40;;;;;;;;;;5031713;28;20049;-72
2023/07/26 12:59:59;;;;;;;3.10;1.70;;;;;;;;;;5031720;28;20046;-73
2023/07/26 13:02:25;;;;;;;2.17;1.17;;;;;;;;;;5031872;28;20048;-73
2023/07/26 13:04:53;;;;;;;2.00;1.30;;;;;;;;;;5031909;28;20056;-73
2023/07/26 13:07:20;;;;;;;1.88;1.23;;;;;;;;;;5031673;28;20065;-74
2023/07/26 13:09:46;;;;;;;3.67;1.50;;;;;;;;;;5031918;28;20077;-73
2023/07/26 13:12:13;;;;;;;2.97;1.70;;;;;;;;;;5031729;28;20057;-73
2023/07/26 13:14:39;;;;;;;2.95;1.40;;;;;;;;;;5031810;28;20041;-73
2023/07/26 13:17:06;;;;;;;1.73;1.20;;;;;;;;;;5031376;28;20051;-72
2023/07/26 13:19:33;;;;;;;1.50;1.15;;;;;;;;;;5031004;28;20063;-73
2023/07/26 13:22:01;;;;;;;1.63;1.30;;;;;;;;;;5031077;28;20514;-73
2023/07/26 13:24:27;;;;;;;2.80;1.55;;;;;;;;;;5031814;28;20434;-73
2023/07/26 13:26:56;;;;;;;2.38;1.23;;;;;;;;;;5031412;28;20499;-73
2023/07/26 13:29:22;;;;;;;1.33;1.00;;;;;;;;;;5031521;28;20053;-73
2023/07/26 13:31:49;;;;;;;2.25;1.20;;;;;;;;;;5030633;28;20495;-73
2023/07/26 13:34:15;;;;;;;1.25;1.15;;;;;;;;;;5031125;28;20056;-73
2023/07/26 13:36:42;;;;;;;1.60;1.33;;;;;;;;;;5030914;28;20042;-73
2023/07/26 13:39:10;;;;;;;1.20;1.10;;;;;;;;;;5031469;28;20049;-73
2023/07/26 13:41:36;;;;;;;2.47;1.38;;;;;;;;;;5030804;28;20487;-74
2023/07/26 13:44:03;;;;;;;2.92;1.20;;;;;;;;;;5031351;28;20046;-72
2023/07/26 13:46:29;;;;;;;1.80;1.30;;;;;;;;;;5031097;28;20053;-73
2023/07/26 13:48:56;;;;;;;2.60;1.40;;;;;;;;;;5031042;28;20050;-72
2023/07/26 13:51:23;;;;;;;1.40;1.30;;;;;;;;;;5031495;28;20056;-73
2023/07/26 13:53:49;;;;;;;2.28;1.20;;;;;;;;;;5031255;28;20427;-74
2023/07/26 13:56:17;;;;;;;1.88;1.50;;;;;;;;;;5031141;28;20488;-73
2023/07/26 13:58:44;;;;;;;2.35;2.00;;;;;;;;;;5030564;28;20041;-73
2023/07/26 14:01:10;;;;;;;2.25;1.60;;;;;;;;;;5030181;28;20045;-73
2023/07/26 14:03:37;;;;;;;2.97;1.40;;;;;;;;;;5030092;28;20046;-72
2023/07/26 14:06:04;;;;;;;2.08;1.58;;;;;;;;;;5031313;28;20049;-73
2023/07/26 14:08:31;;;;;;;2.78;1.77;;;;;;;;;;5030292;28;20495;-73
2023/07/26 14:10:57;;;;;;;1.98;1.48;;;;;;;;;;5030254;28;20388;-73
2023/07/26 14:13:25;;;;;;;1.90;1.70;;;;;;;;;;5030474;28;20488;-75
2023/07/26 14:15:52;;;;;;;3.25;1.70;;;;;;;;;;5030422;28;20243;-74
2023/07/26 14:18:18;;;;;;;3.90;1.60;;;;;;;;;;5030247;28;20045;-73
2023/07/26 14:20:45;;;;;;;2.58;1.55;;;;;;;;;;5029749;28;20410;-74
2023/07/26 14:23:11;;;;;;;2.17;1.63;;;;;;;;;;5030620;28;20392;-73
2023/07/26 14:25:38;;;;;;;1.85;1.63;;;;;;;;;;5029919;28;20049;-73
2023/07/26 14:28:05;;;;;;;3.00;1.85;;;;;;;;;;5030250;28;20076;-73
2023/07/26 14:30:32;;;;;;;1.73;1.45;;;;;;;;;;5029227;28;20041;-74
2023/07/26 14:33:00;;;;;;;2.53;1.67;;;;;;;;;;5030113;28;20049;-73
2023/07/26 14:35:32;;;;;;;2.42;1.48;;;;;;;;;;5030043;28;20045;-73
2023/07/26 14:37:59;;;;;;;2.42;1.55;;;;;;;;;;5029960;28;20064;-71
2023/07/26 14:40:25;;;;;;;2.28;1.40;;;;;;;;;;5029314;28;20053;-73
2023/07/26 14:42:52;;;;;;;2.28;1.40;;;;;;;;;;5030092;28;20041;-73
2023/07/26 14:45:28;;;;;;;3.15;1.50;;;;;;;;;;5029619;28;20056;-72
2023/07/26 14:47:56;;;;;;;2.53;1.40;;;;;;;;;;5029868;28;20491;-72